Time;durP1;ratioP1;P1;durP2;ratioP2;P2;SDS_P1;SDS_P2;PMS_P1;PMS_P2;Temp;Humidity;BMP_temperature;BMP_pressure;BME280_temperature;BME280_humidity;BME280_pressure;Samples;Min_cycle;Max_cycle;Signal;HPM_P1;HPM_P2
2023/04/27 00:01:11;;;;;;;12.38;5.25;;;5.10;99.90;;;;;;5047409;28;20045;-74
2023/04/27 00:03:37;;;;;;;11.57;5.22;;;4.60;99.90;;;;;;5044264;28;20052;-74
2023/04/27 00:06:03;;;;;;;10.85;4.65;;;4.30;99.90;;;;;;5047421;28;20045;-74
2023/04/27 00:08:28;;;;;;;10.00;4.80;;;4.40;99.90;;;;;;5030570;28;20041;-74
2023/04/27 00:10:55;;;;;;;14.15;5.28;;;4.40;99.90;;;;;;5031289;28;20095;-74
2023/04/27 00:13:21;;;;;;;11.63;5.20;;;4.60;99.90;;;;;;5039051;28;20098;-75
2023/04/27 00:15:47;;;;;;;11.32;5.20;;;4.40;99.90;;;;;;5041098;28;20446;-74
2023/04/27 00:18:13;;;;;;;10.63;4.97;;;4.40;99.90;;;;;;5051842;28;20072;-74
2023/04/27 00:20:39;;;;;;;11.10;5.18;;;4.40;99.90;;;;;;5037616;28;20067;-74
2023/04/27 00:23:06;;;;;;;13.20;5.90;;;4.50;99.90;;;;;;5050550;28;20037;-74
2023/04/27 00:25:31;;;;;;;15.00;6.40;;;4.70;99.90;;;;;;5042094;28;20697;-74
2023/04/27 00:27:57;;;;;;;13.93;7.60;;;4.50;99.90;;;;;;5051469;28;20039;-74
2023/04/27 00:30:23;;;;;;;12.38;7.40;;;4.60;99.90;;;;;;4992251;28;20041;-74
2023/04/27 00:32:49;;;;;;;13.85;6.78;;;4.50;99.90;;;;;;5023167;28;20047;-74
2023/04/27 00:35:15;;;;;;;10.90;5.20;;;4.50;99.90;;;;;;5048879;28;20102;-74
2023/04/27 00:37:40;;;;;;;10.68;4.95;;;4.50;99.90;;;;;;5043286;28;20071;-74
2023/04/27 00:40:07;;;;;;;11.90;3.90;;;4.60;99.90;;;;;;5038412;28;20035;-74
2023/04/27 00:42:34;;;;;;;9.70;3.70;;;4.60;99.90;;;;;;5050199;28;20048;-74
2023/04/27 00:45:00;;;;;;;8.20;3.45;;;4.70;99.90;;;;;;5053630;28;20043;-74
2023/04/27 00:47:26;;;;;;;8.27;2.78;;;4.80;99.90;;;;;;5037679;28;20166;-75
2023/04/27 00:49:52;;;;;;;9.10;2.85;;;4.80;99.90;;;;;;5057842;28;20037;-74
2023/04/27 00:52:18;;;;;;;8.73;2.40;;;4.90;99.90;;;;;;5043733;28;20141;-74
2023/04/27 00:54:44;;;;;;;8.85;2.50;;;5.00;99.90;;;;;;5042308;28;20131;-75
2023/04/27 00:57:10;;;;;;;6.60;2.50;;;5.10;99.90;;;;;;5038718;28;20036;-74
2023/04/27 00:59:35;;;;;;;7.38;2.50;;;5.20;99.90;;;;;;5038351;28;20494;-74
2023/04/27 01:02:01;;;;;;;8.50;2.50;;;5.50;99.90;;;;;;5054099;28;20032;-74
2023/04/27 01:04:28;;;;;;;7.63;2.55;;;5.20;99.90;;;;;;5056717;28;20055;-74
2023/04/27 01:06:54;;;;;;;6.93;2.70;;;5.20;99.90;;;;;;5033550;28;20040;-74
2023/04/27 01:09:20;;;;;;;8.65;2.53;;;5.40;99.90;;;;;;5042389;28;20050;-74
2023/04/27 01:11:46;;;;;;;6.95;2.42;;;5.10;99.90;;;;;;5053442;28;20041;-74
2023/04/27 01:14:12;;;;;;;8.40;2.78;;;5.10;99.90;;;;;;5037282;28;20094;-75
2023/04/27 01:16:38;;;;;;;8.73;2.80;;;5.00;99.90;;;;;;5049428;28;20502;-74
2023/04/27 01:19:04;;;;;;;6.43;2.50;;;5.60;99.90;;;;;;5050366;28;20048;-74
2023/04/27 01:21:30;;;;;;;7.32;2.72;;;5.20;99.90;;;;;;5047695;28;20106;-74
2023/04/27 01:23:55;;;;;;;7.32;2.67;;;4.90;99.90;;;;;;5039133;28;20072;-74
2023/04/27 01:26:21;;;;;;;10.25;3.35;;;5.10;99.90;;;;;;5050852;28;20036;-74
2023/04/27 01:28:48;;;;;;;7.25;2.60;;;4.80;99.90;;;;;;5035772;28;20033;-74
2023/04/27 01:31:14;;;;;;;7.70;2.53;;;4.70;99.90;;;;;;5052442;28;20530;-74
2023/04/27 01:33:40;;;;;;;8.18;2.88;;;4.70;99.90;;;;;;5050305;28;20105;-74
2023/04/27 01:36:07;;;;;;;8.63;2.80;;;4.60;99.90;;;;;;5035617;28;20045;-74
2023/04/27 01:38:33;;;;;;;7.50;3.03;;;4.60;99.90;;;;;;5053497;28;20044;-74
2023/04/27 01:41:02;;;;;;;8.60;2.88;;;4.60;99.90;;;;;;5040289;28;20037;-74
2023/04/27 01:43:30;;;;;;;7.88;2.90;;;4.50;99.90;;;;;;5052847;28;20060;-74
2023/04/27 01:45:56;;;;;;;9.05;3.83;;;4.50;99.90;;;;;;5052848;28;20048;-74
2023/04/27 01:48:22;;;;;;;9.15;3.45;;;4.50;99.90;;;;;;5051525;28;20036;-74
2023/04/27 01:50:47;;;;;;;8.68;3.90;;;4.50;99.90;;;;;;5044744;28;20044;-74
2023/04/27 01:53:13;;;;;;;9.00;3.95;;;4.40;99.90;;;;;;5073083;28;20120;-74
2023/04/27 01:55:39;;;;;;;12.15;4.90;;;4.40;99.90;;;;;;5039568;28;20040;-74
2023/04/27 01:58:05;;;;;;;11.73;5.57;;;5.00;99.90;;;;;;5055648;28;20681;-74
2023/04/27 02:00:31;;;;;;;13.77;5.72;;;4.30;99.90;;;;;;5051459;28;20553;-74
2023/04/27 02:02:59;;;;;;;12.82;5.78;;;4.30;99.90;;;;;;5061753;28;20497;-74
2023/04/27 02:05:24;;;;;;;13.30;6.95;;;4.30;99.90;;;;;;5051633;28;20040;-74
2023/04/27 02:07:50;;;;;;;12.45;6.63;;;4.30;99.90;;;;;;5051809;28;20063;-74
2023/04/27 02:10:16;;;;;;;12.00;6.43;;;4.20;99.90;;;;;;5058137;28;20040;-74
2023/04/27 02:12:41;;;;;;;13.30;6.50;;;4.20;99.90;;;;;;5043529;28;20032;-74
2023/04/27 02:15:08;;;;;;;12.75;6.57;;;4.50;99.90;;;;;;5054510;28;20089;-74
2023/04/27 02:17:34;;;;;;;12.27;5.93;;;4.10;99.90;;;;;;5019826;28;20071;-75
2023/04/27 02:20:00;;;;;;;14.40;7.18;;;4.40;99.90;;;;;;5038516;28;20609;-74
2023/04/27 02:22:26;;;;;;;15.25;8.68;;;4.10;99.90;;;;;;5065413;28;20075;-74
2023/04/27 02:24:52;;;;;;;18.65;11.23;;;4.10;99.90;;;;;;5045119;28;20431;-74
2023/04/27 02:27:17;;;;;;;19.95;11.15;;;4.10;99.90;;;;;;5041505;28;20047;-74
2023/04/27 02:29:43;;;;;;;15.88;9.80;;;4.00;99.90;;;;;;5030806;28;20128;-74
2023/04/27 02:32:09;;;;;;;17.75;9.55;;;4.00;99.90;;;;;;5048463;28;22508;-74
2023/04/27 02:34:34;;;;;;;13.07;7.28;;;4.10;99.90;;;;;;5031278;28;20044;-74
2023/04/27 02:37:00;;;;;;;14.27;6.50;;;4.20;99.90;;;;;;5047446;28;20124;-74
2023/04/27 02:39:26;;;;;;;14.52;6.55;;;4.00;99.90;;;;;;5047408;28;20358;-74
2023/04/27 02:41:51;;;;;;;12.02;5.80;;;3.90;99.90;;;;;;5048900;28;20037;-74
2023/04/27 02:44:17;;;;;;;12.25;5.93;;;4.00;99.90;;;;;;5055055;28;20710;-74
2023/04/27 02:46:43;;;;;;;11.57;5.93;;;3.90;99.90;;;;;;5039114;28;20052;-74
2023/04/27 02:49:08;;;;;;;16.15;7.28;;;3.90;99.90;;;;;;5047671;28;20044;-74
2023/04/27 02:51:34;;;;;;;12.90;7.60;;;3.90;99.90;;;;;;5054353;28;20040;-74
2023/04/27 02:54:00;;;;;;;15.85;7.63;;;3.80;99.90;;;;;;5054916;28;20066;-74
2023/04/27 02:56:26;;;;;;;14.18;7.55;;;4.00;99.90;;;;;;5037867;28;20041;-74
2023/04/27 02:58:51;;;;;;;14.27;7.78;;;3.70;99.90;;;;;;5055220;28;20029;-74
2023/04/27 03:01:17;;;;;;;12.80;7.53;;;3.60;99.90;;;;;;5040539;28;20106;-74
2023/04/27 03:03:46;;;;;;;13.98;7.47;;;4.10;99.90;;;;;;5054450;28;20045;-74
2023/04/27 03:06:13;;;;;;;13.23;7.15;;;3.40;99.90;;;;;;5053422;28;20039;-74
2023/04/27 03:08:39;;;;;;;12.38;6.63;;;3.40;99.90;;;;;;5046522;28;20215;-74
2023/04/27 03:11:04;;;;;;;13.00;6.35;;;3.30;99.90;;;;;;5054005;28;20573;-74
2023/04/27 03:13:34;;;;;;;11.43;6.00;;;3.70;99.90;;;;;;5028172;28;20072;-74
2023/04/27 03:16:00;;;;;;;12.77;6.35;;;3.10;99.90;;;;;;5048962;28;20126;-74
2023/04/27 03:18:26;;;;;;;13.68;6.20;;;3.10;99.90;;;;;;5044676;28;20490;-74
2023/04/27 03:20:52;;;;;;;14.95;6.03;;;3.90;99.90;;;;;;5037798;28;20036;-74
2023/04/27 03:23:17;;;;;;;11.93;5.53;;;3.00;99.90;;;;;;5034368;28;20115;-74
2023/04/27 03:25:43;;;;;;;12.88;6.38;;;3.50;99.90;;;;;;5039814;28;20553;-74
2023/04/27 03:28:09;;;;;;;13.27;6.30;;;3.00;99.90;;;;;;5058698;28;20074;-74
2023/04/27 03:30:34;;;;;;;10.77;5.68;;;3.60;99.90;;;;;;5037319;28;20109;-74
2023/04/27 03:33:00;;;;;;;12.65;6.68;;;2.90;99.90;;;;;;5051181;28;20066;-74
2023/04/27 03:35:26;;;;;;;12.65;6.50;;;2.90;99.90;;;;;;5062214;28;20559;-74
2023/04/27 03:37:52;;;;;;;11.88;6.32;;;2.90;99.90;;;;;;5066193;28;20040;-74
2023/04/27 03:40:17;;;;;;;11.77;6.32;;;3.40;99.90;;;;;;5032057;28;20039;-74
2023/04/27 03:42:43;;;;;;;13.73;6.15;;;2.80;99.90;;;;;;5035161;28;20036;-74
2023/04/27 03:45:11;;;;;;;14.32;6.78;;;2.40;99.90;;;;;;5056537;28;20469;-74
2023/04/27 03:47:36;;;;;;;13.00;6.60;;;2.80;99.90;;;;;;5048871;28;20067;-74
2023/04/27 03:50:03;;;;;;;14.60;6.57;;;3.00;99.90;;;;;;5049638;28;20064;-74
2023/04/27 03:52:28;;;;;;;12.27;6.30;;;2.80;99.90;;;;;;5049386;28;20543;-74
2023/04/27 03:54:54;;;;;;;12.13;6.38;;;3.40;99.90;;;;;;5052923;28;20067;-74
2023/04/27 03:57:20;;;;;;;13.57;6.22;;;3.70;99.90;;;;;;5048374;28;20119;-74
2023/04/27 03:59:46;;;;;;;13.30;5.93;;;3.60;99.90;;;;;;5037934;28;20129;-74
2023/04/27 04:02:11;;;;;;;13.48;6.53;;;3.00;99.90;;;;;;5034121;28;20028;-74
2023/04/27 04:04:37;;;;;;;14.00;6.50;;;2.80;99.90;;;;;;5052005;28;20077;-74
2023/04/27 04:07:02;;;;;;;11.38;6.00;;;2.80;99.90;;;;;;5030693;28;20266;-74
2023/04/27 04:09:28;;;;;;;13.00;6.68;;;3.50;99.90;;;;;;5058441;28;20037;-75
2023/04/27 04:11:54;;;;;;;14.27;6.45;;;3.90;99.90;;;;;;5047415;28;20036;-75
2023/04/27 04:14:20;;;;;;;10.93;5.60;;;2.80;99.90;;;;;;5037296;28;20066;-74
2023/04/27 04:16:45;;;;;;;12.10;6.50;;;3.30;99.90;;;;;;5054336;28;20470;-75
2023/04/27 04:19:11;;;;;;;13.05;5.95;;;3.10;99.90;;;;;;5069426;28;20084;-75
2023/04/27 04:21:37;;;;;;;14.40;6.68;;;3.10;99.90;;;;;;5042089;28;20044;-75
2023/04/27 04:24:03;;;;;;;16.27;6.55;;;3.60;99.90;;;;;;5058087;28;20043;-74
2023/04/27 04:26:29;;;;;;;14.98;6.60;;;2.90;99.90;;;;;;5056905;28;20498;-75
2023/04/27 04:28:55;;;;;;;13.88;6.35;;;2.90;99.90;;;;;;5051907;28;20067;-75
2023/04/27 04:31:21;;;;;;;12.57;6.57;;;2.90;99.90;;;;;;5033862;28;20185;-74
2023/04/27 04:33:47;;;;;;;13.20;6.53;;;3.50;99.90;;;;;;5060958;28;20090;-74
2023/04/27 04:36:13;;;;;;;11.40;5.72;;;3.50;99.90;;;;;;5055459;28;20068;-75
2023/04/27 04:38:38;;;;;;;12.65;6.15;;;3.10;99.90;;;;;;5063286;28;20046;-75
2023/04/27 04:41:04;;;;;;;12.55;5.90;;;3.30;99.90;;;;;;5062212;28;20061;-75
2023/04/27 04:43:30;;;;;;;11.52;6.13;;;3.00;99.90;;;;;;5056959;28;20052;-74
2023/04/27 04:45:55;;;;;;;14.20;6.43;;;3.00;99.90;;;;;;5057175;28;20501;-74
2023/04/27 04:48:21;;;;;;;12.90;7.28;;;3.10;99.90;;;;;;5065140;28;20036;-75
2023/04/27 04:50:47;;;;;;;13.82;6.53;;;3.50;99.90;;;;;;5051620;28;20054;-75
2023/04/27 04:53:12;;;;;;;12.85;6.05;;;3.10;99.90;;;;;;5046658;28;20481;-75
2023/04/27 04:55:38;;;;;;;14.82;6.43;;;3.20;99.90;;;;;;5058306;28;20140;-75
2023/04/27 04:58:04;;;;;;;13.07;6.50;;;3.20;99.90;;;;;;5066256;28;20116;-75
2023/04/27 05:00:30;;;;;;;16.30;6.90;;;4.00;99.90;;;;;;5038464;28;20639;-75
2023/04/27 05:02:56;;;;;;;11.98;6.22;;;3.60;99.90;;;;;;5049868;28;20059;-75
2023/04/27 05:05:21;;;;;;;13.00;6.30;;;3.40;99.90;;;;;;5045362;28;20032;-75
2023/04/27 05:07:47;;;;;;;12.60;6.18;;;4.30;99.90;;;;;;5062021;28;20094;-75
2023/04/27 05:10:13;;;;;;;15.38;6.40;;;3.50;99.90;;;;;;5048294;28;20032;-75
2023/04/27 05:12:38;;;;;;;12.63;6.60;;;3.50;99.90;;;;;;5041646;28;20040;-75
2023/04/27 05:15:05;;;;;;;15.63;6.38;;;3.60;99.90;;;;;;5050250;28;20037;-75
2023/04/27 05:17:30;;;;;;;14.48;6.47;;;3.70;99.90;;;;;;5059265;28;20294;-75
2023/04/27 05:19:57;;;;;;;13.50;6.25;;;3.70;99.90;;;;;;5048456;28;20298;-75
2023/04/27 05:22:22;;;;;;;12.27;6.70;;;4.10;99.90;;;;;;5064996;28;20578;-75
2023/04/27 05:24:48;;;;;;;13.75;6.03;;;3.80;99.90;;;;;;5034197;28;20040;-75
2023/04/27 05:27:14;;;;;;;14.55;6.20;;;4.20;99.90;;;;;;5045852;28;20489;-75
2023/04/27 05:29:39;;;;;;;12.35;5.93;;;4.80;99.90;;;;;;5045216;28;20089;-75
2023/04/27 05:32:05;;;;;;;14.10;5.82;;;4.10;99.90;;;;;;5059557;28;20177;-75
2023/04/27 05:34:31;;;;;;;13.98;6.25;;;4.40;99.90;;;;;;5057196;28;20114;-75
2023/04/27 05:36:57;;;;;;;12.32;5.57;;;4.50;99.90;;;;;;5042148;28;20060;-75
2023/04/27 05:39:22;;;;;;;13.02;5.90;;;4.30;99.90;;;;;;5048644;28;20384;-75
2023/04/27 05:41:48;;;;;;;12.93;5.90;;;4.40;99.90;;;;;;5060283;28;20132;-75
2023/04/27 05:44:14;;;;;;;13.10;5.72;;;4.50;99.90;;;;;;5039443;28;20484;-75
2023/04/27 05:46:39;;;;;;;11.45;5.53;;;4.60;99.90;;;;;;5060269;28;20047;-75
2023/04/27 05:49:05;;;;;;;13.32;5.90;;;4.70;99.90;;;;;;5027834;28;20036;-75
2023/04/27 05:51:32;;;;;;;11.80;5.18;;;4.80;99.90;;;;;;5058360;28;20051;-75
2023/04/27 05:53:58;;;;;;;14.00;5.80;;;4.90;99.90;;;;;;5048467;28;20183;-75
2023/04/27 05:56:24;;;;;;;11.35;5.97;;;5.00;99.90;;;;;;5049627;28;20114;-75
2023/04/27 05:58:50;;;;;;;11.52;5.60;;;5.20;99.90;;;;;;5045505;28;20549;-75
2023/04/27 06:01:20;;;;;;;14.93;5.20;;;5.50;99.90;;;;;;5079722;28;20052;-75
2023/04/27 06:03:46;;;;;;;11.02;5.50;;;5.40;99.90;;;;;;5046975;28;20374;-75
2023/04/27 06:06:11;;;;;;;11.95;5.30;;;5.90;99.90;;;;;;5062859;28;20043;-75
2023/04/27 06:08:38;;;;;;;11.07;5.00;;;5.90;99.90;;;;;;5062976;28;20062;-75
2023/04/27 06:11:04;;;;;;;13.98;5.93;;;5.80;99.90;;;;;;5044195;28;21784;-75
2023/04/27 06:13:31;;;;;;;10.85;5.35;;;5.90;99.90;;;;;;5044493;28;20399;-75
2023/04/27 06:15:58;;;;;;;11.35;5.57;;;6.00;99.90;;;;;;5037501;28;20036;-75
2023/04/27 06:18:23;;;;;;;11.48;5.10;;;6.00;99.90;;;;;;5062614;28;20836;-75
2023/04/27 06:20:49;;;;;;;10.55;4.65;;;6.10;99.90;;;;;;5025290;28;20605;-75
2023/04/27 06:23:15;;;;;;;10.85;5.00;;;6.20;99.90;;;;;;5053190;28;20093;-75
2023/04/27 06:25:40;;;;;;;12.30;5.10;;;6.30;99.90;;;;;;5058939;28;20080;-75
2023/04/27 06:28:06;;;;;;;11.90;5.05;;;6.40;99.90;;;;;;5040095;28;20109;-75
2023/04/27 06:30:32;;;;;;;11.77;5.00;;;6.50;99.90;;;;;;5043232;28;20051;-75
2023/04/27 06:32:58;;;;;;;13.98;4.95;;;6.60;99.90;;;;;;5062726;28;20048;-75
2023/04/27 06:35:23;;;;;;;10.80;4.32;;;6.70;99.90;;;;;;5052473;28;20118;-75
2023/04/27 06:37:50;;;;;;;11.30;4.43;;;6.80;99.90;;;;;;5061783;28;20156;-75
2023/04/27 06:40:16;;;;;;;10.75;4.20;;;6.90;99.90;;;;;;5042171;28;20074;-75
2023/04/27 06:42:41;;;;;;;10.63;3.97;;;7.00;99.90;;;;;;5038560;28;20725;-75
2023/04/27 06:45:07;;;;;;;10.63;3.65;;;7.10;99.90;;;;;;5033072;28;20074;-75
2023/04/27 06:47:33;;;;;;;11.02;3.75;;;7.30;99.90;;;;;;5051933;28;20062;-75
2023/04/27 06:49:59;;;;;;;8.43;3.20;;;7.40;99.90;;;;;;5052897;28;20044;-75
2023/04/27 06:52:25;;;;;;;9.90;3.30;;;7.50;99.90;;;;;;5042397;28;20032;-75
2023/04/27 06:54:50;;;;;;;10.95;3.72;;;7.60;99.90;;;;;;5040982;28;20040;-75
2023/04/27 06:57:16;;;;;;;8.60;3.22;;;7.70;99.90;;;;;;5046433;28;20391;-75
2023/04/27 06:59:42;;;;;;;8.15;3.25;;;7.80;99.90;;;;;;5043170;28;20127;-75
2023/04/27 07:02:07;;;;;;;9.15;3.30;;;7.90;99.90;;;;;;5047266;28;20036;-75
2023/04/27 07:04:33;;;;;;;8.02;2.75;;;8.00;99.90;;;;;;5011868;28;20044;-75
2023/04/27 07:06:59;;;;;;;8.85;3.08;;;8.10;99.90;;;;;;5029286;28;20040;-75
2023/04/27 07:09:27;;;;;;;8.45;3.20;;;8.20;99.90;;;;;;5042920;28;20127;-75
2023/04/27 07:11:53;;;;;;;8.70;2.88;;;8.30;99.90;;;;;;5060616;28;20055;-75
2023/04/27 07:14:19;;;;;;;9.52;3.00;;;8.40;99.90;;;;;;5054969;28;20116;-75
2023/04/27 07:16:46;;;;;;;9.07;3.10;;;8.50;99.90;;;;;;5059538;28;20045;-75
2023/04/27 07:19:12;;;;;;;8.52;3.00;;;8.60;99.90;;;;;;5043919;28;20575;-75
2023/04/27 07:21:37;;;;;;;10.52;3.03;;;8.70;99.90;;;;;;5044028;28;20102;-75
2023/04/27 07:24:03;;;;;;;9.77;2.97;;;8.80;99.90;;;;;;5054936;28;20046;-75
2023/04/27 07:26:30;;;;;;;9.65;3.40;;;8.90;99.90;;;;;;5027377;28;20076;-75
2023/04/27 07:28:56;;;;;;;10.57;3.28;;;8.90;99.90;;;;;;5054976;28;20444;-75
2023/04/27 07:31:22;;;;;;;9.68;2.97;;;9.10;99.90;;;;;;5071531;28;20040;-75
2023/04/27 07:33:48;;;;;;;8.57;3.10;;;9.20;99.90;;;;;;5053488;28;20066;-75
2023/04/27 07:36:14;;;;;;;7.88;2.70;;;9.30;99.90;;;;;;5037096;28;20087;-75
2023/04/27 07:38:39;;;;;;;9.50;3.00;;;9.40;99.90;;;;;;5034824;28;20574;-76
2023/04/27 07:41:06;;;;;;;9.35;2.70;;;9.50;99.90;;;;;;5061280;28;20036;-75
2023/04/27 07:43:32;;;;;;;7.88;2.72;;;9.60;99.90;;;;;;5053175;28;20043;-75
2023/04/27 07:45:57;;;;;;;8.45;2.78;;;9.60;99.90;;;;;;5037933;28;20358;-75
2023/04/27 07:48:23;;;;;;;9.30;2.60;;;9.70;99.90;;;;;;5053225;28;20336;-75
2023/04/27 07:50:49;;;;;;;10.35;2.72;;;9.80;99.90;;;;;;5066163;28;20044;-75
2023/04/27 07:53:15;;;;;;;8.20;2.80;;;9.90;99.90;;;;;;5071352;28;20040;-75
2023/04/27 07:55:43;;;;;;;10.98;2.70;;;10.00;99.90;;;;;;5070821;28;20051;-75
2023/04/27 07:58:10;;;;;;;8.20;2.50;;;10.10;99.90;;;;;;5059171;28;20045;-75
2023/04/27 08:00:36;;;;;;;10.98;2.90;;;10.10;99.90;;;;;;5059556;28;20036;-75
2023/04/27 08:03:02;;;;;;;8.32;2.40;;;10.20;99.90;;;;;;5062420;28;20040;-75
2023/04/27 08:05:27;;;;;;;6.93;2.65;;;10.20;99.90;;;;;;5070101;28;20036;-75
2023/04/27 08:07:53;;;;;;;8.48;2.60;;;10.30;99.90;;;;;;5051233;28;20078;-75
2023/04/27 08:10:19;;;;;;;8.60;2.30;;;10.50;99.90;;;;;;5049695;28;20051;-74
2023/04/27 08:12:45;;;;;;;7.82;2.40;;;10.60;99.90;;;;;;5054032;28;20541;-75
2023/04/27 08:15:11;;;;;;;7.10;2.30;;;10.70;99.90;;;;;;5051158;28;20108;-75
2023/04/27 08:17:39;;;;;;;11.32;2.75;;;10.70;99.90;;;;;;5056224;28;20037;-75
2023/04/27 08:20:06;;;;;;;8.23;2.60;;;10.70;99.90;;;;;;5037327;28;20044;-75
2023/04/27 08:22:32;;;;;;;8.40;2.50;;;10.70;99.90;;;;;;5051330;28;20135;-75
2023/04/27 08:24:59;;;;;;;8.25;2.55;;;10.80;99.90;;;;;;5040515;28;20131;-75
2023/04/27 08:27:24;;;;;;;8.18;2.45;;;10.80;99.90;;;;;;5051730;28;20486;-75
2023/04/27 08:29:50;;;;;;;7.43;2.47;;;11.00;99.90;;;;;;5044025;28;20063;-75
2023/04/27 08:32:16;;;;;;;7.28;2.40;;;11.00;99.90;;;;;;5061240;28;20040;-75
2023/04/27 08:34:43;;;;;;;8.13;2.60;;;11.10;99.90;;;;;;5048470;28;20047;-75
2023/04/27 08:37:09;;;;;;;9.02;2.40;;;11.20;99.90;;;;;;5058177;28;20044;-75
2023/04/27 08:39:35;;;;;;;9.50;2.72;;;11.30;99.90;;;;;;5051665;28;21098;-75
2023/04/27 08:42:08;;;;;;;10.80;3.42;;;11.40;99.90;;;;;;5027461;28;20481;-75
2023/04/27 08:44:40;;;;;;;11.82;2.90;;;11.50;99.90;;;;;;5061330;28;20044;-75
2023/04/27 08:47:07;;;;;;;8.57;3.05;;;11.60;99.90;;;;;;5064182;28;20494;-75
2023/04/27 08:49:33;;;;;;;11.02;3.75;;;11.80;99.90;;;;;;5044716;28;20131;-75
2023/04/27 08:52:00;;;;;;;7.90;2.75;;;11.80;99.90;;;;;;5028205;28;20433;-74
2023/04/27 08:54:26;;;;;;;8.23;2.70;;;11.80;99.90;;;;;;5055454;28;20041;-75
2023/04/27 08:56:52;;;;;;;9.55;3.05;;;11.70;99.90;;;;;;5048925;28;20046;-75
2023/04/27 08:59:18;;;;;;;7.32;2.60;;;11.70;99.90;;;;;;5061905;28;20405;-75
2023/04/27 09:01:47;;;;;;;12.82;2.80;;;11.70;99.90;;;;;;5053381;28;20044;-75
2023/04/27 09:04:14;;;;;;;10.00;2.72;;;11.80;99.90;;;;;;5070460;28;20040;-75
2023/04/27 09:06:40;;;;;;;6.88;2.50;;;11.80;99.90;;;;;;5071268;28;20036;-75
2023/04/27 09:09:06;;;;;;;9.55;2.90;;;11.70;99.90;;;;;;5049655;28;20044;-75
2023/04/27 09:11:37;;;;;;;8.55;2.97;;;11.70;99.90;;;;;;4723275;28;10000366;-75
2023/04/27 09:14:20;;;;;;;9.38;3.10;;;11.70;99.90;;;;;;5072100;28;20043;-75
2023/04/27 09:16:56;;;;;;;9.13;2.97;;;11.60;99.90;;;;;;5049158;28;20043;-74
2023/04/27 09:19:29;;;;;;;8.95;3.03;;;11.70;99.90;;;;;;5056282;28;20126;-74
2023/04/27 09:22:15;;;;;;;;;;;11.80;99.90;;;;;;5041995;28;20043;-75
2023/04/27 09:24:51;;;;;;;8.48;2.85;;;12.00;99.90;;;;;;4703491;28;10000463;-74
2023/04/27 09:27:20;;;;;;;9.40;3.15;;;12.30;99.90;;;;;;5047140;28;20461;-75
2023/04/27 09:29:46;;;;;;;8.18;2.85;;;12.50;99.90;;;;;;5059813;28;20109;-75
2023/04/27 09:32:21;;;;;;;9.15;2.92;;;12.70;99.90;;;;;;5058789;28;20044;-75
2023/04/27 09:34:47;;;;;;;9.07;3.42;;;12.70;99.90;;;;;;5050872;28;20040;-75
2023/04/27 09:37:13;;;;;;;8.55;3.08;;;12.70;99.90;;;;;;5027516;28;20048;-75
2023/04/27 09:39:40;;;;;;;9.88;3.63;;;12.80;99.90;;;;;;5048860;28;20061;-75
2023/04/27 09:42:07;;;;;;;11.65;3.70;;;12.70;99.90;;;;;;5050174;28;20064;-75
2023/04/27 09:44:34;;;;;;;11.00;3.40;;;12.80;99.90;;;;;;5057894;28;20115;-75
2023/04/27 09:47:00;;;;;;;9.30;2.92;;;12.80;99.90;;;;;;5038715;28;20055;-75
2023/04/27 09:49:30;;;;;;;9.13;3.00;;;12.80;99.90;;;;;;5050657;28;20044;-75
2023/04/27 09:51:57;;;;;;;8.05;2.97;;;12.90;99.90;;;;;;5051727;28;20316;-75
2023/04/27 09:54:28;;;;;;;10.10;2.92;;;12.90;99.90;;;;;;5049403;28;20037;-75
2023/04/27 09:57:08;;;;;;;10.88;3.22;;;13.00;99.90;;;;;;5068561;28;20058;-75
2023/04/27 09:59:59;;;;;;;9.02;3.28;;;13.00;99.90;;;;;;5038232;28;20654;-75
2023/04/27 10:02:26;;;;;;;9.13;2.80;;;13.00;99.90;;;;;;5056747;28;20037;-75
2023/04/27 10:05:21;;;;;;;14.45;4.85;;;13.10;99.90;;;;;;5056715;28;20541;-75
2023/04/27 10:07:47;;;;;;;11.88;2.92;;;13.20;99.90;;;;;;5080590;28;20071;-75
2023/04/27 10:10:17;;;;;;;7.43;2.80;;;13.20;99.90;;;;;;5054394;28;20041;-75
2023/04/27 10:12:43;;;;;;;7.85;2.80;;;13.10;99.90;;;;;;5052492;28;20055;-75
2023/04/27 10:15:16;;;;;;;7.80;2.60;;;13.00;99.90;;;;;;5042043;28;20482;-75
2023/04/27 10:17:48;;;;;;;;;;;13.00;99.90;;;;;;5047372;28;20055;-75
2023/04/27 10:20:15;;;;;;;9.35;3.47;;;12.70;99.90;;;;;;5056729;28;19927;-75
2023/04/27 10:22:43;;;;;;;8.35;3.50;;;12.60;99.90;;;;;;5045187;28;20052;-75
2023/04/27 10:25:20;;;;;;;10.45;3.80;;;12.50;99.90;;;;;;5058046;28;20283;-75
2023/04/27 10:27:54;;;;;;;9.93;3.70;;;12.50;99.90;;;;;;5042216;28;20040;-75
2023/04/27 10:30:21;;;;;;;14.25;3.97;;;12.50;99.90;;;;;;5069107;28;20035;-75
2023/04/27 10:32:58;;;;;;;10.10;3.30;;;12.40;99.90;;;;;;5059348;28;20367;-74
2023/04/27 10:35:34;;;;;;;9.10;3.65;;;12.30;99.90;;;;;;5043206;28;20033;-75
2023/04/27 10:38:20;;;;;;;13.90;4.93;;;12.20;99.90;;;;;;5057072;28;20055;-75
2023/04/27 10:40:55;;;;;;;11.00;3.70;;;12.20;99.90;;;;;;5064630;28;20049;-75
2023/04/27 10:43:27;;;;;;;9.18;3.50;;;12.10;99.90;;;;;;5038581;28;20033;-75
2023/04/27 10:45:54;;;;;;;9.52;3.80;;;12.00;99.90;;;;;;5042155;28;20048;-75
2023/04/27 10:48:21;;;;;;;11.15;3.72;;;11.90;99.90;;;;;;5050945;28;20047;-75
2023/04/27 10:50:49;;;;;;;10.05;3.78;;;11.80;99.90;;;;;;5049166;28;20099;-75
2023/04/27 10:53:16;;;;;;;10.55;3.90;;;11.70;99.90;;;;;;5059682;28;20044;-75
2023/04/27 10:55:42;;;;;;;8.63;3.65;;;11.60;99.90;;;;;;5073796;28;20391;-75
2023/04/27 10:58:07;;;;;;;10.65;3.78;;;11.70;99.90;;;;;;5063519;28;20040;-75
2023/04/27 11:00:37;;;;;;;10.52;4.50;;;11.80;99.90;;;;;;5029686;28;20527;-75
2023/04/27 11:03:29;;;;;;;9.57;3.60;;;11.90;99.90;;;;;;5053912;28;21430;-75
2023/04/27 11:06:01;;;;;;;11.05;3.83;;;11.90;99.90;;;;;;5023690;28;20524;-74
2023/04/27 11:08:27;;;;;;;11.85;3.78;;;11.90;99.90;;;;;;5058482;28;20036;-75
2023/04/27 11:10:52;;;;;;;9.50;3.70;;;12.10;99.90;;;;;;5064210;28;21847;-75
2023/04/27 11:13:23;;;;;;;13.00;4.03;;;12.20;99.90;;;;;;5045574;28;20545;-75
2023/04/27 11:15:55;;;;;;;10.77;4.00;;;12.30;99.90;;;;;;5068356;28;20103;-75
2023/04/27 11:18:23;;;;;;;9.45;3.75;;;12.40;99.90;;;;;;5054890;28;20033;-75
2023/04/27 11:20:51;;;;;;;11.82;4.57;;;12.50;99.90;;;;;;5082769;28;20469;-74
2023/04/27 11:23:25;;;;;;;10.40;3.90;;;12.70;99.90;;;;;;5058173;28;20535;-76
2023/04/27 11:25:51;;;;;;;8.30;3.70;;;12.80;99.90;;;;;;5059513;28;20044;-76
2023/04/27 11:28:18;;;;;;;9.00;4.00;;;12.80;99.90;;;;;;5060966;28;20097;-76
2023/04/27 11:30:44;;;;;;;9.02;3.78;;;12.90;99.90;;;;;;5068374;28;20082;-76
2023/04/27 11:33:10;;;;;;;9.88;3.90;;;13.00;99.90;;;;;;5065327;28;20485;-80
2023/04/27 11:35:35;;;;;;;10.90;4.07;;;13.00;99.90;;;;;;5065737;28;20113;-76
2023/04/27 11:38:02;;;;;;;12.13;4.40;;;13.00;99.90;;;;;;5048777;28;20129;-76
2023/04/27 11:40:28;;;;;;;9.88;4.15;;;13.10;99.90;;;;;;5060294;28;20036;-76
2023/04/27 11:43:03;;;;;;;9.55;3.83;;;13.10;99.90;;;;;;5050726;28;20518;-75
2023/04/27 11:45:29;;;;;;;11.88;4.13;;;13.10;99.90;;;;;;5053010;28;20173;-75
2023/04/27 11:47:57;;;;;;;9.32;4.20;;;12.90;99.90;;;;;;5056667;28;20044;-75
2023/04/27 11:50:25;;;;;;;10.40;4.22;;;12.60;99.90;;;;;;5060407;28;20068;-75
2023/04/27 11:52:52;;;;;;;9.68;4.10;;;12.50;99.90;;;;;;5052122;28;20107;-75
2023/04/27 11:55:20;;;;;;;9.60;3.80;;;12.40;99.90;;;;;;5045040;28;20049;-75
2023/04/27 11:57:46;;;;;;;10.88;4.10;;;12.50;99.90;;;;;;5052539;28;20049;-75
2023/04/27 12:00:13;;;;;;;9.13;3.95;;;12.50;99.90;;;;;;5034114;28;20079;-75
2023/04/27 12:02:40;;;;;;;9.82;4.10;;;12.40;99.90;;;;;;5049457;28;20516;-75
2023/04/27 12:05:08;;;;;;;12.00;4.25;;;12.20;99.90;;;;;;5063859;28;20040;-75
2023/04/27 12:07:34;;;;;;;11.88;4.68;;;12.00;99.90;;;;;;5048335;28;20579;-75
2023/04/27 12:10:00;;;;;;;10.55;4.47;;;11.90;99.90;;;;;;5047167;28;20071;-75
2023/04/27 12:12:26;;;;;;;10.43;4.10;;;11.90;99.90;;;;;;5062951;28;20072;-75
2023/04/27 12:14:52;;;;;;;8.65;3.70;;;11.80;99.90;;;;;;5058660;28;20128;-75
2023/04/27 12:17:18;;;;;;;11.40;4.13;;;11.70;99.90;;;;;;5058363;28;20093;-75
2023/04/27 12:19:44;;;;;;;10.75;4.00;;;11.50;99.90;;;;;;5055188;28;20053;-75
2023/04/27 12:22:10;;;;;;;12.85;4.35;;;11.40;99.90;;;;;;5052575;28;20051;-75
2023/04/27 12:24:36;;;;;;;12.60;4.32;;;11.30;99.90;;;;;;5048205;28;20128;-75
2023/04/27 12:27:03;;;;;;;8.93;3.65;;;11.20;99.90;;;;;;5057512;28;20126;-76
2023/04/27 12:29:30;;;;;;;11.48;3.65;;;11.20;99.90;;;;;;5048229;28;20294;-74
2023/04/27 12:31:57;;;;;;;11.30;4.28;;;11.20;99.90;;;;;;5040173;28;20147;-75
2023/04/27 12:34:23;;;;;;;9.63;4.13;;;11.20;99.90;;;;;;5033486;28;20181;-75
2023/04/27 12:36:49;;;;;;;9.82;4.28;;;11.40;99.90;;;;;;5054109;28;20131;-75
2023/04/27 12:39:17;;;;;;;11.07;4.45;;;11.50;99.90;;;;;;5063657;28;20127;-75
2023/04/27 12:41:43;;;;;;;11.05;4.40;;;11.50;99.90;;;;;;5071274;28;20092;-75
2023/04/27 12:44:10;;;;;;;9.50;3.80;;;11.80;99.90;;;;;;5068751;28;20485;-75
2023/04/27 12:46:36;;;;;;;10.52;4.10;;;12.00;99.90;;;;;;5060847;28;20037;-75